sensor_id;sensor_type;location;lat;lon;timestamp;P1;durP1;ratioP1;P2;durP2;ratioP2
50012;SDS011;35901;48.694;9.476;2023-08-12T00:01:11;7.20;;;6.60;;
50012;SDS011;35901;48.694;9.476;2023-08-12T00:03:36;7.47;;;6.87;;
50012;SDS011;35901;48.694;9.476;2023-08-12T00:06:02;7.23;;;6.63;;
50012;SDS011;35901;48.694;9.476;2023-08-12T00:08:30;6.80;;;6.13;;
50012;SDS011;35901;48.694;9.476;2023-08-12T00:10:56;7.00;;;6.40;;
50012;SDS011;35901;48.694;9.476;2023-08-12T00:13:22;7.33;;;6.60;;
50012;SDS011;35901;48.694;9.476;2023-08-12T00:15:48;8.17;;;7.00;;
50012;SDS011;35901;48.694;9.476;2023-08-12T00:18:13;7.30;;;6.70;;
50012;SDS011;35901;48.694;9.476;2023-08-12T00:20:40;6.97;;;6.40;;
50012;SDS011;35901;48.694;9.476;2023-08-12T00:23:07;7.83;;;7.23;;
50012;SDS011;35901;48.694;9.476;2023-08-12T00:25:33;7.97;;;7.27;;
50012;SDS011;35901;48.694;9.476;2023-08-12T00:27:59;8.23;;;7.53;;
50012;SDS011;35901;48.694;9.476;2023-08-12T00:30:25;8.23;;;7.43;;
50012;SDS011;35901;48.694;9.476;2023-08-12T00:32:50;8.90;;;8.00;;
50012;SDS011;35901;48.694;9.476;2023-08-12T00:35:16;8.30;;;7.60;;
50012;SDS011;35901;48.694;9.476;2023-08-12T00:37:42;8.20;;;7.50;;
50012;SDS011;35901;48.694;9.476;2023-08-12T00:40:08;10.17;;;9.23;;
50012;SDS011;35901;48.694;9.476;2023-08-12T00:42:34;10.17;;;9.20;;
50012;SDS011;35901;48.694;9.476;2023-08-12T00:45:00;11.83;;;10.73;;
50012;SDS011;35901;48.694;9.476;2023-08-12T00:47:27;9.63;;;8.83;;
50012;SDS011;35901;48.694;9.476;2023-08-12T00:49:55;9.53;;;8.73;;
50012;SDS011;35901;48.694;9.476;2023-08-12T00:52:23;9.73;;;8.83;;
50012;SDS011;35901;48.694;9.476;2023-08-12T00:54:49;10.00;;;9.00;;
50012;SDS011;35901;48.694;9.476;2023-08-12T00:57:15;9.40;;;8.50;;
50012;SDS011;35901;48.694;9.476;2023-08-12T00:59:41;9.53;;;8.30;;
50012;SDS011;35901;48.694;9.476;2023-08-12T01:02:09;10.00;;;9.00;;
50012;SDS011;35901;48.694;9.476;2023-08-12T01:04:35;9.27;;;8.47;;
50012;SDS011;35901;48.694;9.476;2023-08-12T01:07:01;11.00;;;10.00;;
50012;SDS011;35901;48.694;9.476;2023-08-12T01:09:28;10.27;;;9.27;;
50012;SDS011;35901;48.694;9.476;2023-08-12T01:12:12;9.00;;;8.20;;
50012;SDS011;35901;48.694;9.476;2023-08-12T01:14:45;10.20;;;9.30;;
50012;SDS011;35901;48.694;9.476;2023-08-12T01:17:14;10.53;;;9.53;;
50012;SDS011;35901;48.694;9.476;2023-08-12T01:19:40;11.53;;;10.53;;
50012;SDS011;35901;48.694;9.476;2023-08-12T01:22:10;10.87;;;9.87;;
50012;SDS011;35901;48.694;9.476;2023-08-12T01:24:37;10.13;;;9.13;;
50012;SDS011;35901;48.694;9.476;2023-08-12T01:27:08;9.77;;;8.87;;
50012;SDS011;35901;48.694;9.476;2023-08-12T01:29:35;10.87;;;9.97;;
50012;SDS011;35901;48.694;9.476;2023-08-12T01:32:11;10.63;;;9.63;;
50012;SDS011;35901;48.694;9.476;2023-08-12T01:35:02;10.40;;;9.47;;
50012;SDS011;35901;48.694;9.476;2023-08-12T01:37:42;9.40;;;8.50;;
50012;SDS011;35901;48.694;9.476;2023-08-12T01:40:09;9.63;;;8.67;;
50012;SDS011;35901;48.694;9.476;2023-08-12T01:42:36;10.57;;;9.57;;
50012;SDS011;35901;48.694;9.476;2023-08-12T01:45:04;10.10;;;9.23;;
50012;SDS011;35901;48.694;9.476;2023-08-12T01:47:30;10.10;;;9.20;;
50012;SDS011;35901;48.694;9.476;2023-08-12T01:49:57;10.80;;;9.80;;
50012;SDS011;35901;48.694;9.476;2023-08-12T01:52:23;10.13;;;9.23;;
50012;SDS011;35901;48.694;9.476;2023-08-12T01:54:49;10.60;;;9.70;;
50012;SDS011;35901;48.694;9.476;2023-08-12T01:57:15;10.47;;;9.57;;
50012;SDS011;35901;48.694;9.476;2023-08-12T01:59:41;11.00;;;10.00;;
50012;SDS011;35901;48.694;9.476;2023-08-12T02:02:09;10.87;;;9.77;;
50012;SDS011;35901;48.694;9.476;2023-08-12T02:04:35;12.37;;;11.27;;
50012;SDS011;35901;48.694;9.476;2023-08-12T02:07:02;10.97;;;9.97;;
50012;SDS011;35901;48.694;9.476;2023-08-12T02:09:29;12.43;;;11.20;;
50012;SDS011;35901;48.694;9.476;2023-08-12T02:11:55;11.33;;;10.23;;
50012;SDS011;35901;48.694;9.476;2023-08-12T02:14:21;12.50;;;11.40;;
50012;SDS011;35901;48.694;9.476;2023-08-12T02:16:47;13.17;;;11.97;;
50012;SDS011;35901;48.694;9.476;2023-08-12T02:19:13;13.73;;;12.33;;
50012;SDS011;35901;48.694;9.476;2023-08-12T02:21:38;12.93;;;11.73;;
50012;SDS011;35901;48.694;9.476;2023-08-12T02:24:04;12.77;;;11.57;;
50012;SDS011;35901;48.694;9.476;2023-08-12T02:26:30;12.90;;;11.70;;
50012;SDS011;35901;48.694;9.476;2023-08-12T02:28:56;13.10;;;12.00;;
50012;SDS011;35901;48.694;9.476;2023-08-12T02:31:22;12.97;;;11.77;;
50012;SDS011;35901;48.694;9.476;2023-08-12T02:33:47;13.13;;;11.93;;
50012;SDS011;35901;48.694;9.476;2023-08-12T02:36:14;12.23;;;11.13;;
50012;SDS011;35901;48.694;9.476;2023-08-12T02:38:40;12.57;;;11.47;;
50012;SDS011;35901;48.694;9.476;2023-08-12T02:41:08;13.57;;;12.20;;
50012;SDS011;35901;48.694;9.476;2023-08-12T02:43:33;14.23;;;12.33;;
50012;SDS011;35901;48.694;9.476;2023-08-12T02:46:01;11.97;;;10.93;;
50012;SDS011;35901;48.694;9.476;2023-08-12T02:48:27;12.73;;;11.53;;
50012;SDS011;35901;48.694;9.476;2023-08-12T02:50:52;12.37;;;11.17;;
50012;SDS011;35901;48.694;9.476;2023-08-12T02:53:18;13.97;;;12.67;;
50012;SDS011;35901;48.694;9.476;2023-08-12T02:55:46;12.43;;;11.17;;
50012;SDS011;35901;48.694;9.476;2023-08-12T02:58:12;12.60;;;11.40;;
50012;SDS011;35901;48.694;9.476;2023-08-12T03:00:41;11.77;;;10.67;;
50012;SDS011;35901;48.694;9.476;2023-08-12T03:03:10;10.80;;;9.73;;
50012;SDS011;35901;48.694;9.476;2023-08-12T03:05:36;11.00;;;10.00;;
50012;SDS011;35901;48.694;9.476;2023-08-12T03:08:02;10.30;;;9.40;;
50012;SDS011;35901;48.694;9.476;2023-08-12T03:10:29;10.10;;;9.20;;
50012;SDS011;35901;48.694;9.476;2023-08-12T03:12:56;10.00;;;9.20;;
50012;SDS011;35901;48.694;9.476;2023-08-12T03:15:21;9.80;;;8.97;;
50012;SDS011;35901;48.694;9.476;2023-08-12T03:17:47;10.30;;;9.40;;
50012;SDS011;35901;48.694;9.476;2023-08-12T03:20:14;9.80;;;8.80;;
50012;SDS011;35901;48.694;9.476;2023-08-12T03:22:40;10.53;;;9.63;;
50012;SDS011;35901;48.694;9.476;2023-08-12T03:25:07;11.47;;;10.43;;
50012;SDS011;35901;48.694;9.476;2023-08-12T03:27:33;11.13;;;10.13;;
50012;SDS011;35901;48.694;9.476;2023-08-12T03:29:59;10.37;;;9.47;;
50012;SDS011;35901;48.694;9.476;2023-08-12T03:32:25;10.07;;;9.17;;
50012;SDS011;35901;48.694;9.476;2023-08-12T03:34:51;10.73;;;9.63;;
50012;SDS011;35901;48.694;9.476;2023-08-12T03:37:17;11.07;;;10.07;;
50012;SDS011;35901;48.694;9.476;2023-08-12T03:39:43;11.53;;;10.53;;
50012;SDS011;35901;48.694;9.476;2023-08-12T03:42:09;11.93;;;10.77;;
50012;SDS011;35901;48.694;9.476;2023-08-12T03:44:36;11.83;;;10.73;;
50012;SDS011;35901;48.694;9.476;2023-08-12T03:47:01;11.97;;;10.87;;
50012;SDS011;35901;48.694;9.476;2023-08-12T03:49:28;12.13;;;11.03;;
50012;SDS011;35901;48.694;9.476;2023-08-12T03:51:53;12.20;;;11.10;;
50012;SDS011;35901;48.694;9.476;2023-08-12T03:54:19;12.77;;;11.57;;
50012;SDS011;35901;48.694;9.476;2023-08-12T03:56:45;11.70;;;10.70;;
50012;SDS011;35901;48.694;9.476;2023-08-12T03:59:11;11.77;;;10.67;;
50012;SDS011;35901;48.694;9.476;2023-08-12T04:01:36;11.93;;;10.73;;
50012;SDS011;35901;48.694;9.476;2023-08-12T04:04:03;9.50;;;8.70;;
50012;SDS011;35901;48.694;9.476;2023-08-12T04:06:29;9.07;;;8.27;;
50012;SDS011;35901;48.694;9.476;2023-08-12T04:08:55;8.03;;;7.40;;
50012;SDS011;35901;48.694;9.476;2023-08-12T04:11:20;7.90;;;7.20;;
50012;SDS011;35901;48.694;9.476;2023-08-12T04:13:46;8.37;;;7.67;;
50012;SDS011;35901;48.694;9.476;2023-08-12T04:16:12;8.43;;;7.57;;
50012;SDS011;35901;48.694;9.476;2023-08-12T04:18:38;8.40;;;7.70;;
50012;SDS011;35901;48.694;9.476;2023-08-12T04:21:04;8.13;;;7.53;;
50012;SDS011;35901;48.694;9.476;2023-08-12T04:23:30;8.10;;;7.47;;
50012;SDS011;35901;48.694;9.476;2023-08-12T04:25:56;8.20;;;7.50;;
50012;SDS011;35901;48.694;9.476;2023-08-12T04:28:25;7.40;;;6.80;;
50012;SDS011;35901;48.694;9.476;2023-08-12T04:30:51;7.73;;;7.03;;
50012;SDS011;35901;48.694;9.476;2023-08-12T04:33:18;7.60;;;7.00;;
50012;SDS011;35901;48.694;9.476;2023-08-12T04:35:48;7.10;;;6.50;;
50012;SDS011;35901;48.694;9.476;2023-08-12T04:38:23;6.87;;;6.27;;
50012;SDS011;35901;48.694;9.476;2023-08-12T04:40:52;7.33;;;6.73;;
50012;SDS011;35901;48.694;9.476;2023-08-12T04:43:18;7.63;;;7.03;;
50012;SDS011;35901;48.694;9.476;2023-08-12T04:45:45;8.77;;;7.87;;
50012;SDS011;35901;48.694;9.476;2023-08-12T04:48:12;7.70;;;7.10;;
50012;SDS011;35901;48.694;9.476;2023-08-12T04:50:38;8.20;;;7.50;;
50012;SDS011;35901;48.694;9.476;2023-08-12T04:53:04;8.33;;;7.20;;
50012;SDS011;35901;48.694;9.476;2023-08-12T04:55:31;8.07;;;7.37;;
50012;SDS011;35901;48.694;9.476;2023-08-12T04:57:58;8.10;;;7.40;;
50012;SDS011;35901;48.694;9.476;2023-08-12T05:00:25;7.43;;;6.73;;
50012;SDS011;35901;48.694;9.476;2023-08-12T05:02:51;7.00;;;6.40;;
50012;SDS011;35901;48.694;9.476;2023-08-12T05:05:16;7.67;;;7.07;;
50012;SDS011;35901;48.694;9.476;2023-08-12T05:07:42;7.33;;;6.73;;
50012;SDS011;35901;48.694;9.476;2023-08-12T05:10:11;7.87;;;7.17;;
50012;SDS011;35901;48.694;9.476;2023-08-12T05:12:36;8.40;;;7.60;;
50012;SDS011;35901;48.694;9.476;2023-08-12T05:15:02;8.20;;;7.40;;
50012;SDS011;35901;48.694;9.476;2023-08-12T05:17:28;8.07;;;7.33;;
50012;SDS011;35901;48.694;9.476;2023-08-12T05:19:54;8.57;;;7.87;;
50012;SDS011;35901;48.694;9.476;2023-08-12T05:22:20;8.27;;;7.60;;
50012;SDS011;35901;48.694;9.476;2023-08-12T05:24:46;8.23;;;7.60;;
50012;SDS011;35901;48.694;9.476;2023-08-12T05:27:11;7.47;;;6.77;;
50012;SDS011;35901;48.694;9.476;2023-08-12T05:29:37;7.03;;;6.43;;
50012;SDS011;35901;48.694;9.476;2023-08-12T05:32:03;7.37;;;6.77;;
50012;SDS011;35901;48.694;9.476;2023-08-12T05:34:29;8.27;;;7.57;;
50012;SDS011;35901;48.694;9.476;2023-08-12T05:36:54;8.70;;;8.00;;
50012;SDS011;35901;48.694;9.476;2023-08-12T05:39:20;9.03;;;8.23;;
50012;SDS011;35901;48.694;9.476;2023-08-12T05:41:46;8.27;;;7.43;;
50012;SDS011;35901;48.694;9.476;2023-08-12T05:44:12;8.20;;;7.50;;
50012;SDS011;35901;48.694;9.476;2023-08-12T05:46:37;7.93;;;7.23;;
50012;SDS011;35901;48.694;9.476;2023-08-12T05:49:03;7.50;;;6.90;;
50012;SDS011;35901;48.694;9.476;2023-08-12T05:51:29;7.77;;;7.17;;
50012;SDS011;35901;48.694;9.476;2023-08-12T05:53:54;8.40;;;7.60;;
50012;SDS011;35901;48.694;9.476;2023-08-12T05:56:20;6.90;;;6.30;;
50012;SDS011;35901;48.694;9.476;2023-08-12T05:58:46;7.30;;;6.60;;
50012;SDS011;35901;48.694;9.476;2023-08-12T06:01:11;7.53;;;6.83;;
50012;SDS011;35901;48.694;9.476;2023-08-12T06:03:37;6.80;;;6.20;;
50012;SDS011;35901;48.694;9.476;2023-08-12T06:06:02;6.83;;;6.33;;
50012;SDS011;35901;48.694;9.476;2023-08-12T06:08:28;7.80;;;6.30;;
50012;SDS011;35901;48.694;9.476;2023-08-12T06:10:54;6.57;;;6.07;;
50012;SDS011;35901;48.694;9.476;2023-08-12T06:13:19;6.80;;;6.20;;
50012;SDS011;35901;48.694;9.476;2023-08-12T06:15:45;6.73;;;6.13;;
50012;SDS011;35901;48.694;9.476;2023-08-12T06:18:11;5.97;;;5.47;;
50012;SDS011;35901;48.694;9.476;2023-08-12T06:20:36;5.60;;;5.20;;
50012;SDS011;35901;48.694;9.476;2023-08-12T06:23:02;5.43;;;5.03;;
50012;SDS011;35901;48.694;9.476;2023-08-12T06:25:28;5.10;;;4.73;;
50012;SDS011;35901;48.694;9.476;2023-08-12T06:27:54;6.30;;;5.70;;
50012;SDS011;35901;48.694;9.476;2023-08-12T06:30:19;7.10;;;6.40;;
50012;SDS011;35901;48.694;9.476;2023-08-12T06:32:45;7.67;;;6.10;;
50012;SDS011;35901;48.694;9.476;2023-08-12T06:35:10;7.57;;;6.50;;
50012;SDS011;35901;48.694;9.476;2023-08-12T06:37:36;6.97;;;6.37;;
50012;SDS011;35901;48.694;9.476;2023-08-12T06:40:02;7.00;;;6.40;;
50012;SDS011;35901;48.694;9.476;2023-08-12T06:42:29;7.33;;;6.60;;
50012;SDS011;35901;48.694;9.476;2023-08-12T06:44:56;6.93;;;6.33;;
50012;SDS011;35901;48.694;9.476;2023-08-12T06:47:22;5.97;;;5.47;;
50012;SDS011;35901;48.694;9.476;2023-08-12T06:49:48;6.87;;;5.60;;
50012;SDS011;35901;48.694;9.476;2023-08-12T06:52:14;7.40;;;6.00;;
50012;SDS011;35901;48.694;9.476;2023-08-12T06:54:41;5.67;;;5.17;;
50012;SDS011;35901;48.694;9.476;2023-08-12T06:57:06;6.50;;;5.90;;
50012;SDS011;35901;48.694;9.476;2023-08-12T06:59:32;5.67;;;5.17;;
50012;SDS011;35901;48.694;9.476;2023-08-12T07:01:58;6.67;;;5.60;;
50012;SDS011;35901;48.694;9.476;2023-08-12T07:04:23;5.70;;;5.30;;
50012;SDS011;35901;48.694;9.476;2023-08-12T07:06:49;5.03;;;4.63;;
50012;SDS011;35901;48.694;9.476;2023-08-12T07:09:14;4.63;;;4.33;;
50012;SDS011;35901;48.694;9.476;2023-08-12T07:11:40;6.10;;;5.50;;
50012;SDS011;35901;48.694;9.476;2023-08-12T07:14:06;5.00;;;4.60;;
50012;SDS011;35901;48.694;9.476;2023-08-12T07:16:31;5.20;;;4.73;;
50012;SDS011;35901;48.694;9.476;2023-08-12T07:18:58;6.10;;;5.50;;
50012;SDS011;35901;48.694;9.476;2023-08-12T07:21:23;5.77;;;5.17;;
50012;SDS011;35901;48.694;9.476;2023-08-12T07:23:49;6.63;;;5.17;;
50012;SDS011;35901;48.694;9.476;2023-08-12T07:26:15;4.80;;;4.40;;
50012;SDS011;35901;48.694;9.476;2023-08-12T07:28:41;4.90;;;4.50;;
50012;SDS011;35901;48.694;9.476;2023-08-12T07:31:06;6.20;;;4.40;;
50012;SDS011;35901;48.694;9.476;2023-08-12T07:33:32;5.17;;;4.03;;
50012;SDS011;35901;48.694;9.476;2023-08-12T07:35:58;4.30;;;4.00;;
50012;SDS011;35901;48.694;9.476;2023-08-12T07:38:23;5.00;;;4.30;;
50012;SDS011;35901;48.694;9.476;2023-08-12T07:40:49;4.87;;;4.00;;
50012;SDS011;35901;48.694;9.476;2023-08-12T07:43:15;4.00;;;3.60;;
50012;SDS011;35901;48.694;9.476;2023-08-12T07:45:41;3.97;;;3.60;;
50012;SDS011;35901;48.694;9.476;2023-08-12T07:48:06;4.60;;;3.80;;
50012;SDS011;35901;48.694;9.476;2023-08-12T07:50:32;4.50;;;4.03;;
50012;SDS011;35901;48.694;9.476;2023-08-12T07:52:58;4.00;;;3.60;;
50012;SDS011;35901;48.694;9.476;2023-08-12T07:55:24;4.03;;;3.73;;
50012;SDS011;35901;48.694;9.476;2023-08-12T07:57:49;3.97;;;3.67;;
50012;SDS011;35901;48.694;9.476;2023-08-12T08:00:15;4.87;;;4.10;;
50012;SDS011;35901;48.694;9.476;2023-08-12T08:02:41;5.10;;;3.85;;
50012;SDS011;35901;48.694;9.476;2023-08-12T08:05:06;4.00;;;3.57;;
50012;SDS011;35901;48.694;9.476;2023-08-12T08:07:32;4.00;;;3.70;;
50012;SDS011;35901;48.694;9.476;2023-08-12T08:09:58;4.10;;;3.80;;
50012;SDS011;35901;48.694;9.476;2023-08-12T08:12:24;4.57;;;4.05;;
50012;SDS011;35901;48.694;9.476;2023-08-12T08:14:50;3.90;;;3.60;;
50012;SDS011;35901;48.694;9.476;2023-08-12T08:17:16;4.72;;;3.90;;
50012;SDS011;35901;48.694;9.476;2023-08-12T08:19:42;3.92;;;3.50;;
50012;SDS011;35901;48.694;9.476;2023-08-12T08:22:08;4.70;;;3.85;;
50012;SDS011;35901;48.694;9.476;2023-08-12T08:24:33;4.20;;;3.58;;
50012;SDS011;35901;48.694;9.476;2023-08-12T08:26:59;3.88;;;3.58;;
50012;SDS011;35901;48.694;9.476;2023-08-12T08:29:25;3.70;;;3.40;;
50012;SDS011;35901;48.694;9.476;2023-08-12T08:31:50;4.28;;;3.83;;
50012;SDS011;35901;48.694;9.476;2023-08-12T08:34:16;6.00;;;4.38;;
50012;SDS011;35901;48.694;9.476;2023-08-12T08:36:42;4.32;;;3.88;;
50012;SDS011;35901;48.694;9.476;2023-08-12T08:39:08;4.53;;;4.10;;
50012;SDS011;35901;48.694;9.476;2023-08-12T08:41:36;4.70;;;4.35;;
50012;SDS011;35901;48.694;9.476;2023-08-12T08:44:05;5.10;;;4.05;;
50012;SDS011;35901;48.694;9.476;2023-08-12T08:46:33;5.28;;;4.00;;
50012;SDS011;35901;48.694;9.476;2023-08-12T08:48:59;4.28;;;3.97;;
50012;SDS011;35901;48.694;9.476;2023-08-12T08:51:31;4.25;;;3.83;;
50012;SDS011;35901;48.694;9.476;2023-08-12T08:53:57;4.72;;;4.32;;
50012;SDS011;35901;48.694;9.476;2023-08-12T08:56:23;4.15;;;3.85;;
50012;SDS011;35901;48.694;9.476;2023-08-12T08:58:49;4.00;;;3.70;;
50012;SDS011;35901;48.694;9.476;2023-08-12T09:01:15;4.25;;;3.50;;
50012;SDS011;35901;48.694;9.476;2023-08-12T09:03:44;6.18;;;4.20;;
50012;SDS011;35901;48.694;9.476;2023-08-12T09:06:11;4.00;;;3.70;;
50012;SDS011;35901;48.694;9.476;2023-08-12T09:08:37;5.15;;;4.20;;
50012;SDS011;35901;48.694;9.476;2023-08-12T09:11:09;4.53;;;4.03;;
50012;SDS011;35901;48.694;9.476;2023-08-12T09:13:37;4.35;;;4.03;;
50012;SDS011;35901;48.694;9.476;2023-08-12T09:16:03;4.55;;;4.00;;
50012;SDS011;35901;48.694;9.476;2023-08-12T09:18:29;4.15;;;3.80;;
50012;SDS011;35901;48.694;9.476;2023-08-12T09:20:55;4.75;;;4.30;;
50012;SDS011;35901;48.694;9.476;2023-08-12T09:23:21;3.88;;;3.47;;
50012;SDS011;35901;48.694;9.476;2023-08-12T09:25:47;4.35;;;3.90;;
50012;SDS011;35901;48.694;9.476;2023-08-12T09:28:13;4.03;;;3.63;;
50012;SDS011;35901;48.694;9.476;2023-08-12T09:30:40;4.03;;;3.72;;
50012;SDS011;35901;48.694;9.476;2023-08-12T09:33:07;4.40;;;3.28;;
50012;SDS011;35901;48.694;9.476;2023-08-12T09:35:38;4.13;;;3.50;;
50012;SDS011;35901;48.694;9.476;2023-08-12T09:38:06;5.07;;;3.60;;
50012;SDS011;35901;48.694;9.476;2023-08-12T09:40:33;3.85;;;3.03;;
50012;SDS011;35901;48.694;9.476;2023-08-12T09:43:00;3.67;;;3.38;;
50012;SDS011;35901;48.694;9.476;2023-08-12T09:45:26;3.95;;;3.55;;
50012;SDS011;35901;48.694;9.476;2023-08-12T09:47:53;4.03;;;3.60;;
50012;SDS011;35901;48.694;9.476;2023-08-12T09:50:21;4.53;;;3.47;;
50012;SDS011;35901;48.694;9.476;2023-08-12T09:52:50;3.80;;;3.45;;
50012;SDS011;35901;48.694;9.476;2023-08-12T09:55:17;3.90;;;3.50;;
50012;SDS011;35901;48.694;9.476;2023-08-12T09:57:44;3.13;;;2.92;;
50012;SDS011;35901;48.694;9.476;2023-08-12T10:00:13;3.75;;;3.20;;
50012;SDS011;35901;48.694;9.476;2023-08-12T10:02:43;4.15;;;3.00;;
50012;SDS011;35901;48.694;9.476;2023-08-12T10:08:09;3.33;;;2.92;;
50012;SDS011;35901;48.694;9.476;2023-08-12T10:10:37;3.33;;;3.03;;
50012;SDS011;35901;48.694;9.476;2023-08-12T10:13:04;2.90;;;2.70;;
50012;SDS011;35901;48.694;9.476;2023-08-12T10:15:32;3.03;;;2.83;;
50012;SDS011;35901;48.694;9.476;2023-08-12T10:17:59;3.05;;;2.80;;
50012;SDS011;35901;48.694;9.476;2023-08-12T10:20:25;3.30;;;3.00;;
50012;SDS011;35901;48.694;9.476;2023-08-12T10:22:52;3.17;;;2.78;;
50012;SDS011;35901;48.694;9.476;2023-08-12T10:25:19;3.80;;;3.00;;
50012;SDS011;35901;48.694;9.476;2023-08-12T10:27:47;2.95;;;2.70;;
50012;SDS011;35901;48.694;9.476;2023-08-12T10:30:13;3.08;;;2.78;;
50012;SDS011;35901;48.694;9.476;2023-08-12T10:38:44;6.50;;;2.88;;
50012;SDS011;35901;48.694;9.476;2023-08-12T10:41:14;3.20;;;3.00;;
50012;SDS011;35901;48.694;9.476;2023-08-12T10:46:32;4.53;;;3.00;;
50012;SDS011;35901;48.694;9.476;2023-08-12T10:48:59;3.25;;;2.95;;
50012;SDS011;35901;48.694;9.476;2023-08-12T10:51:38;3.03;;;2.83;;
50012;SDS011;35901;48.694;9.476;2023-08-12T11:02:22;3.25;;;2.90;;
50012;SDS011;35901;48.694;9.476;2023-08-12T11:05:09;3.30;;;2.97;;
50012;SDS011;35901;48.694;9.476;2023-08-12T11:12:35;3.10;;;2.80;;
50012;SDS011;35901;48.694;9.476;2023-08-12T11:15:01;3.30;;;3.00;;
50012;SDS011;35901;48.694;9.476;2023-08-12T11:17:30;3.00;;;2.72;;
50012;SDS011;35901;48.694;9.476;2023-08-12T11:20:00;3.10;;;2.80;;
50012;SDS011;35901;48.694;9.476;2023-08-12T11:22:29;3.47;;;3.08;;
50012;SDS011;35901;48.694;9.476;2023-08-12T11:24:55;2.70;;;2.50;;
50012;SDS011;35901;48.694;9.476;2023-08-12T11:27:21;3.30;;;2.97;;
50012;SDS011;35901;48.694;9.476;2023-08-12T11:29:49;3.45;;;3.10;;
50012;SDS011;35901;48.694;9.476;2023-08-12T11:32:16;4.68;;;3.30;;
50012;SDS011;35901;48.694;9.476;2023-08-12T11:34:42;3.05;;;2.72;;
50012;SDS011;35901;48.694;9.476;2023-08-12T11:37:08;3.20;;;2.92;;
50012;SDS011;35901;48.694;9.476;2023-08-12T11:39:34;2.95;;;2.67;;
50012;SDS011;35901;48.694;9.476;2023-08-12T11:42:00;4.10;;;3.05;;
50012;SDS011;35901;48.694;9.476;2023-08-12T11:44:26;3.53;;;3.10;;
50012;SDS011;35901;48.694;9.476;2023-08-12T11:46:51;3.00;;;2.70;;
50012;SDS011;35901;48.694;9.476;2023-08-12T11:49:17;3.88;;;2.85;;
50012;SDS011;35901;48.694;9.476;2023-08-12T11:51:43;6.07;;;3.10;;
50012;SDS011;35901;48.694;9.476;2023-08-12T11:54:13;3.53;;;2.90;;
50012;SDS011;35901;48.694;9.476;2023-08-12T11:56:39;5.35;;;3.05;;
50012;SDS011;35901;48.694;9.476;2023-08-12T11:59:05;4.65;;;3.00;;
50012;SDS011;35901;48.694;9.476;2023-08-12T12:01:31;3.20;;;2.85;;
50012;SDS011;35901;48.694;9.476;2023-08-12T12:03:59;3.30;;;2.90;;
50012;SDS011;35901;48.694;9.476;2023-08-12T12:06:32;3.53;;;3.00;;
50012;SDS011;35901;48.694;9.476;2023-08-12T12:09:05;3.47;;;3.13;;
50012;SDS011;35901;48.694;9.476;2023-08-12T12:11:35;4.90;;;2.67;;
50012;SDS011;35901;48.694;9.476;2023-08-12T12:14:04;3.92;;;2.42;;
50012;SDS011;35901;48.694;9.476;2023-08-12T12:16:41;2.97;;;2.55;;
50012;SDS011;35901;48.694;9.476;2023-08-12T12:19:15;3.35;;;2.30;;
50012;SDS011;35901;48.694;9.476;2023-08-12T12:21:45;2.50;;;2.00;;
50012;SDS011;35901;48.694;9.476;2023-08-12T12:24:12;2.13;;;1.92;;
50012;SDS011;35901;48.694;9.476;2023-08-12T12:26:38;2.22;;;1.90;;
50012;SDS011;35901;48.694;9.476;2023-08-12T12:29:04;2.03;;;1.80;;
50012;SDS011;35901;48.694;9.476;2023-08-12T12:31:34;2.17;;;1.83;;
50012;SDS011;35901;48.694;9.476;2023-08-12T12:34:04;2.90;;;1.98;;
50012;SDS011;35901;48.694;9.476;2023-08-12T12:36:31;3.08;;;2.03;;
50012;SDS011;35901;48.694;9.476;2023-08-12T12:38:57;3.63;;;2.60;;
50012;SDS011;35901;48.694;9.476;2023-08-12T12:41:23;2.83;;;2.50;;
50012;SDS011;35901;48.694;9.476;2023-08-12T12:43:48;2.80;;;2.50;;
50012;SDS011;35901;48.694;9.476;2023-08-12T12:46:14;3.28;;;2.90;;
50012;SDS011;35901;48.694;9.476;2023-08-12T12:48:41;3.50;;;2.53;;
50012;SDS011;35901;48.694;9.476;2023-08-12T12:51:07;4.25;;;3.50;;
50012;SDS011;35901;48.694;9.476;2023-08-12T12:53:33;5.40;;;3.13;;
50012;SDS011;35901;48.694;9.476;2023-08-12T12:55:59;6.13;;;3.20;;
50012;SDS011;35901;48.694;9.476;2023-08-12T12:58:32;6.50;;;4.03;;
50012;SDS011;35901;48.694;9.476;2023-08-12T13:00:59;7.37;;;3.70;;
50012;SDS011;35901;48.694;9.476;2023-08-12T13:03:25;5.00;;;3.90;;
50012;SDS011;35901;48.694;9.476;2023-08-12T13:05:51;6.90;;;4.10;;
50012;SDS011;35901;48.694;9.476;2023-08-12T13:08:17;4.90;;;4.40;;
50012;SDS011;35901;48.694;9.476;2023-08-12T13:10:43;9.30;;;4.90;;
50012;SDS011;35901;48.694;9.476;2023-08-12T13:13:09;6.57;;;4.90;;
50012;SDS011;35901;48.694;9.476;2023-08-12T13:15:35;7.93;;;5.20;;
50012;SDS011;35901;48.694;9.476;2023-08-12T13:18:01;5.27;;;4.77;;
50012;SDS011;35901;48.694;9.476;2023-08-12T13:20:28;5.30;;;4.70;;
50012;SDS011;35901;48.694;9.476;2023-08-12T13:22:53;6.80;;;5.43;;
50012;SDS011;35901;48.694;9.476;2023-08-12T13:25:19;7.07;;;5.37;;
50012;SDS011;35901;48.694;9.476;2023-08-12T13:27:45;5.80;;;4.93;;
50012;SDS011;35901;48.694;9.476;2023-08-12T13:30:10;5.83;;;5.17;;
50012;SDS011;35901;48.694;9.476;2023-08-12T13:35:54;6.13;;;5.63;;
50012;SDS011;35901;48.694;9.476;2023-08-12T13:38:19;6.83;;;5.33;;
50012;SDS011;35901;48.694;9.476;2023-08-12T13:40:45;5.43;;;5.03;;
50012;SDS011;35901;48.694;9.476;2023-08-12T13:43:11;5.03;;;4.53;;
50012;SDS011;35901;48.694;9.476;2023-08-12T13:45:36;5.93;;;5.43;;
50012;SDS011;35901;48.694;9.476;2023-08-12T13:48:02;5.77;;;5.27;;
50012;SDS011;35901;48.694;9.476;2023-08-12T13:50:28;5.77;;;5.00;;
50012;SDS011;35901;48.694;9.476;2023-08-12T13:52:54;8.03;;;4.80;;
50012;SDS011;35901;48.694;9.476;2023-08-12T13:55:19;5.47;;;5.00;;
50012;SDS011;35901;48.694;9.476;2023-08-12T13:57:45;7.00;;;5.30;;
50012;SDS011;35901;48.694;9.476;2023-08-12T14:00:11;5.03;;;4.50;;
50012;SDS011;35901;48.694;9.476;2023-08-12T14:02:41;5.07;;;4.57;;
50012;SDS011;35901;48.694;9.476;2023-08-12T14:05:07;4.90;;;4.50;;
50012;SDS011;35901;48.694;9.476;2023-08-12T14:07:33;5.40;;;4.90;;
50012;SDS011;35901;48.694;9.476;2023-08-12T14:09:59;5.53;;;4.70;;
50012;SDS011;35901;48.694;9.476;2023-08-12T14:12:25;4.60;;;4.20;;
50012;SDS011;35901;48.694;9.476;2023-08-12T14:14:51;6.47;;;4.33;;
50012;SDS011;35901;48.694;9.476;2023-08-12T14:17:16;5.27;;;4.73;;
50012;SDS011;35901;48.694;9.476;2023-08-12T14:19:50;6.73;;;4.30;;
50012;SDS011;35901;48.694;9.476;2023-08-12T14:22:16;5.83;;;3.97;;
50012;SDS011;35901;48.694;9.476;2023-08-12T14:24:42;5.37;;;3.77;;
50012;SDS011;35901;48.694;9.476;2023-08-12T14:27:09;4.80;;;3.70;;
50012;SDS011;35901;48.694;9.476;2023-08-12T14:29:35;4.97;;;3.50;;
50012;SDS011;35901;48.694;9.476;2023-08-12T14:32:01;3.77;;;3.47;;
50012;SDS011;35901;48.694;9.476;2023-08-12T14:34:27;5.37;;;3.60;;
50012;SDS011;35901;48.694;9.476;2023-08-12T14:36:52;3.90;;;3.50;;
50012;SDS011;35901;48.694;9.476;2023-08-12T14:39:18;4.43;;;3.33;;
50012;SDS011;35901;48.694;9.476;2023-08-12T14:41:44;4.57;;;3.13;;
50012;SDS011;35901;48.694;9.476;2023-08-12T14:44:09;3.77;;;3.17;;
50012;SDS011;35901;48.694;9.476;2023-08-12T14:46:35;4.50;;;3.00;;
50012;SDS011;35901;48.694;9.476;2023-08-12T14:49:00;3.20;;;3.00;;
50012;SDS011;35901;48.694;9.476;2023-08-12T14:51:26;2.70;;;2.50;;
50012;SDS011;35901;48.694;9.476;2023-08-12T14:53:52;3.45;;;3.08;;
50012;SDS011;35901;48.694;9.476;2023-08-12T14:56:18;3.20;;;2.72;;
50012;SDS011;35901;48.694;9.476;2023-08-12T14:58:44;4.15;;;3.10;;
50012;SDS011;35901;48.694;9.476;2023-08-12T15:01:09;4.00;;;3.05;;
50012;SDS011;35901;48.694;9.476;2023-08-12T15:03:35;4.00;;;3.10;;
50012;SDS011;35901;48.694;9.476;2023-08-12T15:06:02;3.15;;;2.83;;
50012;SDS011;35901;48.694;9.476;2023-08-12T15:08:29;3.90;;;2.90;;